Time;durP1;ratioP1;P1;durP2;ratioP2;P2;SDS_P1;SDS_P2;PMS_P1;PMS_P2;Temp;Humidity;BMP_temperature;BMP_pressure;BME280_temperature;BME280_humidity;BME280_pressure;Samples;Min_cycle;Max_cycle;Signal;HPM_P1;HPM_P2
2023/08/24 00:01:13;;;;;;;3.00;1.10;;;;;;;16.98;69.75;99781.91;109909;1276;22901;-61
2023/08/24 00:03:42;;;;;;;1.30;1.00;;;;;;;17.02;69.90;99784.05;109914;1276;99649;-61
2023/08/24 00:06:11;;;;;;;2.30;0.60;;;;;;;17.07;69.96;99781.73;109992;1277;22189;-61
2023/08/24 00:08:40;;;;;;;3.90;0.80;;;;;;;17.12;70.01;99775.39;109914;1278;22285;-61
2023/08/24 00:11:11;;;;;;;1.10;0.50;;;;;;;17.15;70.02;99773.73;109803;1276;99481;-60
2023/08/24 00:13:49;;;;;;;1.40;1.00;;;;;;;17.15;69.93;99767.11;109886;1276;22191;-60
2023/08/24 00:16:19;;;;;;;1.20;0.60;;;;;;;17.15;70.09;99768.31;109695;1277;99713;-60
2023/08/24 00:18:48;;;;;;;0.90;0.80;;;;;;;17.15;70.17;99760.75;109941;1276;22291;-61
2023/08/24 00:21:19;;;;;;;2.00;1.00;;;;;;;17.15;70.09;99758.45;109875;1278;22157;-60
2023/08/24 00:23:48;;;;;;;3.10;1.20;;;;;;;17.14;70.06;99759.79;109986;1276;99426;-60
2023/08/24 00:26:19;;;;;;;2.10;0.70;;;;;;;17.13;70.19;99765.46;109998;1276;22219;-61
2023/08/24 00:28:48;;;;;;;1.50;0.70;;;;;;;17.13;70.22;99762.85;109838;1277;100461;-60
2023/08/24 00:31:17;;;;;;;1.80;0.60;;;;;;;17.11;70.27;99762.86;109973;1276;22920;-61
2023/08/24 00:33:46;;;;;;;1.00;0.70;;;;;;;17.05;70.02;99762.70;109811;1275;99520;-61
2023/08/24 00:36:15;;;;;;;1.70;0.60;;;;;;;17.04;70.43;99762.64;109971;1278;22167;-61
2023/08/24 00:38:44;;;;;;;1.40;0.70;;;;;;;17.06;70.56;99755.43;109885;1276;22957;-61
2023/08/24 00:41:13;;;;;;;1.00;0.70;;;;;;;17.07;70.67;99756.45;109811;1276;100117;-61
2023/08/24 00:43:42;;;;;;;4.20;0.90;;;;;;;17.06;70.74;99747.35;109919;1279;23039;-61
2023/08/24 00:46:11;;;;;;;1.40;0.70;;;;;;;17.00;71.04;99749.56;109875;1276;99697;-60
2023/08/24 00:48:39;;;;;;;1.10;0.60;;;;;;;17.00;71.19;99748.53;109971;1277;22353;-61
2023/08/24 00:51:08;;;;;;;1.20;0.70;;;;;;;17.01;71.31;99749.67;109982;1276;22411;-61
2023/08/24 00:53:38;;;;;;;1.80;0.60;;;;;;;17.01;71.40;99752.85;109942;1278;99452;-61
2023/08/24 00:56:06;;;;;;;1.70;0.80;;;;;;;17.03;71.34;99753.23;110009;1276;22370;-61
2023/08/24 00:58:35;;;;;;;2.10;0.90;;;;;;;17.02;71.41;99747.46;109943;1271;99490;-61
2023/08/24 01:01:04;;;;;;;1.20;0.70;;;;;;;17.02;71.63;99746.23;109961;1276;23214;-61
2023/08/24 01:03:33;;;;;;;3.10;0.90;;;;;;;17.02;71.69;99747.65;110003;1276;22288;-61
2023/08/24 01:06:02;;;;;;;1.00;0.40;;;;;;;16.99;71.49;99744.17;109957;1277;22416;-61
2023/08/24 01:08:31;;;;;;;1.10;0.60;;;;;;;16.96;71.71;99747.26;109985;1276;22196;-61
2023/08/24 01:11:45;;;;;;;0.90;0.50;;;;;;;16.95;71.78;99743.98;109792;1278;99668;-61
2023/08/24 01:14:20;;;;;;;0.70;0.60;;;;;;;16.93;71.78;99744.49;109921;1277;23512;-61
2023/08/24 01:16:53;;;;;;;1.20;0.50;;;;;;;16.90;72.07;99746.44;109895;1276;98592;-61
2023/08/24 01:19:49;;;;;;;1.50;0.70;;;;;;;16.90;72.11;99746.77;109843;1280;22112;-61
2023/08/24 01:22:33;;;;;;;1.50;0.60;;;;;;;16.92;72.25;99746.83;109791;1277;99696;-61
2023/08/24 01:25:23;;;;;;;1.70;0.50;;;;;;;16.91;72.34;99745.14;109859;1276;22623;-61
2023/08/24 01:27:53;;;;;;;2.40;1.00;;;;;;;16.90;72.44;99745.34;109931;1276;99648;-61
2023/08/24 01:30:22;;;;;;;3.10;0.70;;;;;;;16.89;72.60;99748.48;109893;1280;22261;-61
2023/08/24 01:32:50;;;;;;;3.00;1.00;;;;;;;16.88;72.65;99746.06;109978;1277;22956;-61
2023/08/24 01:35:19;;;;;;;1.60;0.80;;;;;;;16.84;72.69;99750.19;109799;1277;101717;-61
2023/08/24 01:37:48;;;;;;;1.30;0.50;;;;;;;16.81;72.80;99747.96;109812;1277;22213;-61
2023/08/24 01:40:27;;;;;;;2.40;1.30;;;;;;;16.75;72.62;99748.88;109920;1277;99671;-61
2023/08/24 01:43:03;;;;;;;2.00;0.70;;;;;;;16.68;72.95;99751.46;109845;1276;22182;-61
2023/08/24 01:45:33;;;;;;;2.50;1.30;;;;;;;16.65;73.08;99749.11;109882;1276;23114;-61
2023/08/24 01:48:03;;;;;;;1.80;1.00;;;;;;;16.58;73.20;99750.44;109914;1276;22329;-61
2023/08/24 01:50:33;;;;;;;1.60;0.90;;;;;;;16.54;73.19;99753.89;109863;1280;22170;-61
2023/08/24 01:53:03;;;;;;;3.30;1.00;;;;;;;16.48;73.03;99752.63;109836;1278;99533;-61
2023/08/24 01:55:31;;;;;;;1.60;0.80;;;;;;;16.44;73.65;99753.21;109862;1278;22884;-61
2023/08/24 01:58:00;;;;;;;2.10;0.70;;;;;;;16.43;73.84;99751.04;109800;1277;100896;-61
2023/08/24 02:00:29;;;;;;;1.50;0.80;;;;;;;16.43;74.04;99750.46;109851;1276;22240;-61
2023/08/24 02:02:58;;;;;;;1.20;0.50;;;;;;;16.45;74.12;99752.45;109895;1278;23785;-61
2023/08/24 02:05:28;;;;;;;2.20;0.80;;;;;;;16.43;73.94;99752.57;109786;1276;99537;-61
2023/08/24 02:07:57;;;;;;;1.90;0.90;;;;;;;16.37;73.82;99746.88;109961;1275;23034;-61
2023/08/24 02:10:26;;;;;;;1.70;0.90;;;;;;;16.31;74.18;99747.27;109802;1278;99517;-61
2023/08/24 02:12:55;;;;;;;2.50;1.30;;;;;;;16.29;74.45;99749.35;109945;1278;22171;-61
2023/08/24 02:15:23;;;;;;;1.10;0.70;;;;;;;16.26;74.48;99749.23;109922;1278;22346;-61
2023/08/24 02:17:52;;;;;;;1.10;0.60;;;;;;;16.27;74.96;99748.11;109895;1277;99745;-61
2023/08/24 02:20:21;;;;;;;1.20;0.60;;;;;;;16.29;75.05;99745.33;109976;1271;22364;-61
2023/08/24 02:22:49;;;;;;;1.40;0.50;;;;;;;16.29;75.16;99742.50;109861;1278;99995;-61
2023/08/24 02:25:19;;;;;;;2.20;1.10;;;;;;;16.28;75.05;99734.99;110028;1260;22304;-60
2023/08/24 02:27:48;;;;;;;3.10;0.90;;;;;;;16.28;75.36;99734.99;109929;1269;99635;-61
2023/08/24 02:30:18;;;;;;;1.30;0.50;;;;;;;16.29;75.60;99730.71;109976;1277;22041;-61
2023/08/24 02:32:46;;;;;;;1.20;1.00;;;;;;;16.29;75.71;99729.52;109817;1276;22726;-61
2023/08/24 02:35:15;;;;;;;2.90;0.80;;;;;;;16.29;75.81;99728.62;109880;1278;99950;-61
2023/08/24 02:37:43;;;;;;;3.20;1.00;;;;;;;16.31;76.03;99729.03;109973;1276;23795;-61
2023/08/24 02:40:12;;;;;;;1.40;0.60;;;;;;;16.31;76.06;99729.85;109879;1276;99791;-61
2023/08/24 02:42:41;;;;;;;1.30;0.90;;;;;;;16.32;76.05;99725.25;109932;1277;22366;-61
2023/08/24 02:45:10;;;;;;;1.50;0.90;;;;;;;16.31;76.20;99724.45;109958;1278;22415;-61
2023/08/24 02:47:39;;;;;;;1.00;0.60;;;;;;;16.25;75.92;99723.44;109895;1276;99924;-61
2023/08/24 02:50:08;;;;;;;2.50;0.70;;;;;;;16.20;76.24;99719.60;109925;1276;22140;-61
2023/08/24 02:52:37;;;;;;;2.10;0.80;;;;;;;16.18;76.28;99721.14;109904;1277;99990;-61
2023/08/24 02:55:06;;;;;;;4.20;1.10;;;;;;;16.12;76.40;99716.84;109990;1278;22158;-61
2023/08/24 02:57:35;;;;;;;1.70;0.90;;;;;;;16.10;76.65;99715.21;109944;1276;23348;-61
2023/08/24 03:00:06;;;;;;;2.30;1.00;;;;;;;16.11;76.59;99717.11;109985;1277;23000;-61
2023/08/24 03:02:36;;;;;;;2.70;0.70;;;;;;;16.09;76.62;99728.10;109902;1276;22281;-61
2023/08/24 03:05:05;;;;;;;1.10;0.90;;;;;;;16.01;76.44;99730.45;109848;1278;99488;-61
2023/08/24 03:07:34;;;;;;;1.00;0.70;;;;;;;15.95;76.70;99731.73;109966;1280;22273;-61
2023/08/24 03:10:05;;;;;;;0.70;0.60;;;;;;;15.92;76.65;99735.30;109916;1277;99672;-60
2023/08/24 03:12:34;;;;;;;2.00;1.00;;;;;;;15.86;76.31;99737.78;110000;1276;22354;-61
2023/08/24 03:15:06;;;;;;;1.80;0.90;;;;;;;15.79;76.83;99737.88;109986;1277;24166;-61
2023/08/24 03:17:41;;;;;;;11.40;2.70;;;;;;;15.77;77.16;99734.56;109826;1273;99994;-61
2023/08/24 03:20:10;;;;;;;2.40;0.80;;;;;;;15.74;77.30;99735.09;109896;1279;22338;-61
2023/08/24 03:22:40;;;;;;;1.30;0.70;;;;;;;15.71;77.51;99734.39;109885;1276;99137;-61
2023/08/24 03:25:09;;;;;;;7.30;1.80;;;;;;;15.68;77.72;99735.12;110000;1277;22576;-61
2023/08/24 03:27:38;;;;;;;2.10;0.90;;;;;;;15.64;77.69;99738.02;110008;1276;22374;-61
2023/08/24 03:30:10;;;;;;;1.40;0.80;;;;;;;15.61;78.02;99737.55;109881;1276;99330;-61
2023/08/24 03:32:42;;;;;;;4.40;1.00;;;;;;;15.62;78.28;99736.27;109912;1277;22371;-61
2023/08/24 03:35:12;;;;;;;5.00;1.30;;;;;;;15.63;78.23;99737.94;109844;1278;100031;-61
2023/08/24 03:37:40;;;;;;;18.30;3.30;;;;;;;15.61;78.17;99738.58;109995;1277;22122;-61
2023/08/24 03:40:09;;;;;;;4.00;1.60;;;;;;;15.59;78.40;99739.59;109917;1278;99845;-60
2023/08/24 03:42:38;;;;;;;3.20;0.80;;;;;;;15.62;78.77;99736.21;109988;1277;22323;-61
2023/08/24 03:45:08;;;;;;;2.50;1.10;;;;;;;15.65;78.61;99735.17;109945;1280;22281;-61
2023/08/24 03:47:36;;;;;;;11.80;2.80;;;;;;;15.64;78.73;99736.10;109909;1276;99605;-61
2023/08/24 03:50:05;;;;;;;1.60;0.80;;;;;;;15.65;78.55;99740.04;110007;1276;22308;-61
2023/08/24 03:52:34;;;;;;;0.90;0.60;;;;;;;15.63;78.72;99738.78;109949;1277;99484;-61
2023/08/24 03:55:03;;;;;;;1.00;0.60;;;;;;;15.65;78.83;99736.54;110033;1276;22332;-61
2023/08/24 03:57:32;;;;;;;1.20;0.70;;;;;;;15.68;79.09;99733.17;109969;1278;22914;-61
2023/08/24 04:00:06;;;;;;;0.90;0.60;;;;;;;15.71;79.09;99733.20;109791;1272;99315;-61
2023/08/24 04:02:35;;;;;;;1.70;0.80;;;;;;;15.75;79.28;99737.98;109882;1278;22296;-61
2023/08/24 04:05:04;;;;;;;1.80;0.80;;;;;;;15.76;79.40;99740.56;109864;1278;98975;-61
2023/08/24 04:07:36;;;;;;;2.30;0.70;;;;;;;15.76;79.13;99744.98;110017;1277;22376;-61
2023/08/24 04:10:05;;;;;;;3.50;1.90;;;;;;;15.70;79.02;99746.76;109920;1277;99576;-61
2023/08/24 04:12:34;;;;;;;2.90;0.90;;;;;;;15.66;79.20;99745.45;110021;1277;23073;-60
2023/08/24 04:15:04;;;;;;;2.80;1.00;;;;;;;15.66;79.65;99741.20;110021;1276;23441;-61
2023/08/24 04:17:33;;;;;;;3.00;0.80;;;;;;;15.71;79.69;99738.47;109933;1277;99577;-61
2023/08/24 04:20:01;;;;;;;1.50;0.70;;;;;;;15.76;79.97;99740.70;110025;1276;22393;-60
2023/08/24 04:22:30;;;;;;;2.80;1.00;;;;;;;15.85;80.13;99740.70;109940;1277;99502;-60
2023/08/24 04:24:59;;;;;;;2.90;0.80;;;;;;;15.93;80.00;99739.05;109984;1278;22190;-61
2023/08/24 04:27:28;;;;;;;8.10;1.00;;;;;;;15.98;79.80;99741.89;109972;1276;22131;-60
2023/08/24 04:29:57;;;;;;;1.50;0.70;;;;;;;15.98;79.92;99746.79;109864;1277;100444;-60
2023/08/24 04:32:27;;;;;;;1.50;0.50;;;;;;;15.99;79.96;99747.42;110015;1283;22110;-61
2023/08/24 04:34:56;;;;;;;1.20;0.60;;;;;;;16.02;80.03;99750.55;109947;1277;99423;-61
2023/08/24 04:37:25;;;;;;;9.30;1.90;;;;;;;16.04;80.09;99751.83;109919;1278;22308;-61
2023/08/24 04:39:53;;;;;;;1.40;1.00;;;;;;;16.08;80.10;99751.72;109860;1280;99654;-60
2023/08/24 04:42:22;;;;;;;3.00;1.00;;;;;;;16.13;80.23;99755.09;109855;1278;22124;-61
2023/08/24 04:44:51;;;;;;;1.80;0.40;;;;;;;16.21;80.45;99752.39;109951;1278;23086;-61
2023/08/24 04:47:19;;;;;;;4.20;1.40;;;;;;;16.33;80.68;99753.98;109876;1279;99617;-61
2023/08/24 04:49:48;;;;;;;3.20;1.10;;;;;;;16.47;80.75;99753.38;109816;1276;22198;-61
2023/08/24 04:52:17;;;;;;;2.80;1.50;;;;;;;16.56;80.64;99755.73;109930;1273;99746;-61
2023/08/24 04:54:46;;;;;;;7.80;1.20;;;;;;;16.61;80.85;99755.33;109958;1276;22159;-60
2023/08/24 04:57:14;;;;;;;8.00;1.00;;;;;;;16.70;80.99;99755.00;109974;1277;22643;-60
2023/08/24 04:59:43;;;;;;;5.80;1.40;;;;;;;16.80;80.98;99757.90;109909;1276;99520;-60
2023/08/24 05:02:12;;;;;;;6.50;1.40;;;;;;;16.83;80.59;99758.56;110002;1277;22268;-61
2023/08/24 05:04:41;;;;;;;2.90;1.00;;;;;;;16.83;80.86;99753.64;109927;1277;99515;-61
2023/08/24 05:07:10;;;;;;;12.70;2.00;;;;;;;16.89;81.00;99754.62;109975;1276;22325;-61
2023/08/24 05:09:38;;;;;;;4.30;1.00;;;;;;;17.00;81.10;99752.38;109931;1280;22220;-62
2023/08/24 05:12:07;;;;;;;5.60;1.40;;;;;;;17.09;80.92;99754.73;109868;1271;99975;-61
2023/08/24 05:14:36;;;;;;;5.60;1.20;;;;;;;17.19;81.25;99753.39;110031;1275;22324;-61
2023/08/24 05:17:05;;;;;;;5.30;1.10;;;;;;;17.36;81.16;99752.16;109916;1278;99439;-61
2023/08/24 05:19:33;;;;;;;8.60;2.40;;;;;;;17.51;81.39;99753.13;110027;1277;22130;-61
2023/08/24 05:22:02;;;;;;;12.00;2.10;;;;;;;17.69;81.32;99753.52;109912;1277;99696;-61
2023/08/24 05:24:31;;;;;;;7.50;0.80;;;;;;;17.90;81.42;99751.24;109847;1277;22343;-62
2023/08/24 05:27:00;;;;;;;9.80;1.50;;;;;;;18.08;81.20;99748.11;109898;1278;22956;-62
2023/08/24 05:29:28;;;;;;;9.50;2.50;;;;;;;18.28;80.96;99749.34;109946;1276;100008;-61
2023/08/24 05:31:57;;;;;;;12.60;1.80;;;;;;;18.38;80.88;99746.79;109862;1278;23055;-61
2023/08/24 05:34:25;;;;;;;23.90;3.40;;;;;;;18.50;80.92;99750.75;109876;1283;99867;-61
2023/08/24 05:36:57;;;;;;;15.80;2.70;;;;;;;18.62;81.02;99750.17;109995;1276;22107;-61
2023/08/24 05:39:26;;;;;;;8.80;1.10;;;;;;;18.86;81.17;99758.27;109965;1277;22156;-61
2023/08/24 05:41:54;;;;;;;13.50;2.80;;;;;;;19.10;80.87;99753.20;109947;1276;99885;-62
2023/08/24 05:44:23;;;;;;;6.40;1.50;;;;;;;19.32;80.98;99754.37;110005;1277;22825;-62
2023/08/24 05:46:52;;;;;;;2.10;0.70;;;;;;;19.64;81.05;99754.02;109868;1276;101636;-61
2023/08/24 05:49:21;;;;;;;1.80;1.00;;;;;;;20.02;80.76;99752.37;110028;1276;22385;-62
2023/08/24 05:51:50;;;;;;;5.40;1.00;;;;;;;20.23;80.31;99748.97;109820;1277;99778;-61
2023/08/24 05:54:19;;;;;;;3.10;0.70;;;;;;;20.36;80.04;99749.25;109960;1277;22313;-60
2023/08/24 05:56:48;;;;;;;7.40;1.70;;;;;;;20.45;79.85;99746.04;109945;1277;23105;-60
2023/08/24 05:59:17;;;;;;;5.60;1.10;;;;;;;20.44;79.32;99747.48;109788;1276;99606;-60
2023/08/24 06:01:46;;;;;;;7.60;1.00;;;;;;;20.33;79.27;99750.35;109996;1270;23023;-60
2023/08/24 06:04:14;;;;;;;7.60;1.60;;;;;;;20.37;79.31;99750.39;109695;1274;282075;-60
2023/08/24 06:06:46;;;;;;;8.70;1.00;;;;;;;20.45;79.01;99750.39;109978;1276;22135;-60
2023/08/24 06:09:21;;;;;;;1.80;0.50;;;;;;;20.61;79.04;99746.34;109844;1278;22591;-61
2023/08/24 06:15:19;;;;;;;13.30;1.90;;;;;;;21.16;78.95;99743.30;109939;1277;23073;-59
2023/08/24 06:17:47;;;;;;;2.30;1.10;;;;;;;21.45;78.59;99745.65;109753;1277;99781;-58
2023/08/24 06:20:21;;;;;;;1.80;0.90;;;;;;;21.68;78.30;99742.85;109930;1280;22958;-59
2023/08/24 06:22:50;;;;;;;9.00;1.20;;;;;;;21.83;77.75;99746.02;109710;1278;99541;-59
2023/08/24 06:25:19;;;;;;;10.20;1.20;;;;;;;21.85;77.55;99747.79;109953;1278;23267;-58
2023/08/24 06:27:48;;;;;;;4.40;0.60;;;;;;;21.84;77.13;99751.66;109865;1276;99865;-59
2023/08/24 06:30:17;;;;;;;4.90;1.10;;;;;;;21.81;76.88;99751.61;110008;1277;22235;-59
2023/08/24 06:32:46;;;;;;;16.00;2.60;;;;;;;21.68;76.45;99750.13;109946;1276;22309;-57
2023/08/24 06:35:15;;;;;;;7.40;1.20;;;;;;;21.55;76.25;99750.23;109756;1275;100306;-57
2023/08/24 06:37:44;;;;;;;5.50;0.90;;;;;;;21.40;75.85;99751.33;109807;1280;22292;-58
2023/08/24 06:40:14;;;;;;;4.50;0.90;;;;;;;21.30;75.94;99747.63;109769;1277;99752;-58
2023/08/24 06:42:42;;;;;;;8.90;0.80;;;;;;;21.44;76.05;99747.36;109998;1276;22267;-59
2023/08/24 06:45:11;;;;;;;1.20;0.60;;;;;;;21.57;75.66;99744.25;109995;1276;22161;-61
2023/08/24 06:47:40;;;;;;;1.90;0.80;;;;;;;21.70;75.26;99739.52;109850;1276;99466;-57
2023/08/24 06:50:09;;;;;;;4.20;1.40;;;;;;;21.75;74.91;99742.21;109919;1276;22921;-59
2023/08/24 06:52:38;;;;;;;1.30;0.50;;;;;;;21.74;74.45;99742.00;109916;1278;99628;-60
2023/08/24 06:55:11;;;;;;;4.60;0.70;;;;;;;21.72;74.53;99741.42;109995;1276;23218;-59
2023/08/24 06:57:54;;;;;;;5.30;1.70;;;;;;;21.81;74.29;99746.57;109819;1278;22851;-59
2023/08/24 07:00:25;;;;;;;4.80;1.00;;;;;;;21.78;73.93;99744.73;109833;1277;22148;-60
2023/08/24 07:02:54;;;;;;;6.10;1.40;;;;;;;21.85;74.01;99743.02;109945;1276;22952;-60
2023/08/24 07:05:23;;;;;;;4.30;1.00;;;;;;;22.07;73.86;99743.77;109887;1280;99659;-61
2023/08/24 07:07:55;;;;;;;5.90;1.00;;;;;;;22.28;73.60;99747.86;109880;1278;22191;-61
2023/08/24 07:10:24;;;;;;;5.60;1.10;;;;;;;22.58;73.48;99743.33;109799;1277;100400;-61
2023/08/24 07:12:52;;;;;;;2.70;0.70;;;;;;;22.81;73.01;99745.58;109940;1277;22192;-60
2023/08/24 07:15:21;;;;;;;1.80;0.90;;;;;;;22.92;72.79;99747.46;109950;1281;22377;-61
2023/08/24 07:17:49;;;;;;;5.50;0.70;;;;;;;23.16;72.74;99744.66;109862;1277;99487;-60
2023/08/24 07:20:19;;;;;;;2.60;0.70;;;;;;;23.57;73.07;99748.28;109994;1276;22422;-61
2023/08/24 07:22:50;;;;;;;11.70;2.00;;;;;;;24.06;72.51;99749.58;109860;1277;100466;-61
2023/08/24 07:25:23;;;;;;;1.70;0.70;;;;;;;24.42;71.85;99747.19;109996;1276;23234;-62
2023/08/24 07:27:57;;;;;;;5.00;1.00;;;;;;;25.07;71.64;99750.35;109844;1278;99781;-62
2023/08/24 07:30:27;;;;;;;3.90;0.70;;;;;;;25.47;70.55;99749.77;109987;1273;22027;-60
2023/08/24 07:33:05;;;;;;;2.40;1.00;;;;;;;25.70;69.87;99754.21;109947;1277;23020;-60
2023/08/24 07:35:35;;;;;;;7.80;1.30;;;;;;;25.81;69.42;99752.06;109764;1279;99601;-61
2023/08/24 07:38:04;;;;;;;8.40;1.80;;;;;;;26.31;69.56;99756.07;109942;1276;22281;-60
2023/08/24 07:40:33;;;;;;;3.90;1.00;;;;;;;26.28;67.97;99760.54;109894;1277;99533;-60
2023/08/24 07:43:02;;;;;;;3.40;0.60;;;;;;;25.92;67.16;99760.09;109962;1277;22405;-61
2023/08/24 07:45:33;;;;;;;4.00;0.60;;;;;;;25.63;66.66;99761.13;109970;1276;23197;-61
2023/08/24 07:48:02;;;;;;;1.10;0.60;;;;;;;25.69;67.10;99760.73;109907;1277;99502;-61
2023/08/24 07:50:32;;;;;;;4.40;0.50;;;;;;;27.15;68.15;99765.42;109897;1277;22177;-60
2023/08/24 07:53:04;;;;;;;0.50;0.30;;;;;;;28.87;66.92;99763.33;109875;1276;99643;-61
2023/08/24 07:55:33;;;;;;;9.10;1.40;;;;;;;30.95;66.88;99763.16;110004;1277;22228;-60
2023/08/24 07:58:09;;;;;;;1.70;0.70;;;;;;;33.54;65.67;99760.80;109887;1277;101328;-59
2023/08/24 08:00:40;;;;;;;3.80;0.80;;;;;;;34.19;61.53;99761.31;109992;1279;22666;-60
2023/08/24 08:03:12;;;;;;;10.60;0.80;;;;;;;33.47;60.84;99769.65;109892;1276;22226;-60
2023/08/24 08:05:41;;;;;;;2.50;0.40;;;;;;;32.36;59.06;99773.86;109804;1276;99701;-60
2023/08/24 08:08:10;;;;;;;0.90;0.30;;;;;;;31.35;57.96;99782.08;109947;1277;22867;-60
2023/08/24 08:10:41;;;;;;;3.50;0.50;;;;;;;30.28;57.07;99777.11;109881;1276;99880;-60
2023/08/24 08:13:13;;;;;;;2.80;0.30;;;;;;;29.63;56.12;99782.81;109953;1283;22136;-60
2023/08/24 08:15:46;;;;;;;1.20;0.30;;;;;;;29.16;55.80;99784.69;109969;1276;22247;-60
2023/08/24 08:18:15;;;;;;;1.30;0.10;;;;;;;28.96;55.81;99789.05;109848;1280;22426;-61
2023/08/24 08:20:44;;;;;;;2.10;0.70;;;;;;;29.77;55.54;99782.64;109898;1281;22148;-61
2023/08/24 08:23:12;;;;;;;5.10;1.30;;;;;;;30.42;54.51;99783.86;109873;1278;100042;-60
2023/08/24 08:25:42;;;;;;;4.00;0.50;;;;;;;31.08;54.01;99784.68;109949;1276;23121;-58
2023/08/24 08:28:11;;;;;;;3.30;0.60;;;;;;;31.58;53.64;99784.92;109840;1276;99747;-59
2023/08/24 08:30:40;;;;;;;1.40;0.60;;;;;;;32.71;53.49;99784.28;109922;1281;23253;-60
2023/08/24 08:33:09;;;;;;;1.30;0.30;;;;;;;33.71;51.79;99788.85;109912;1278;22592;-60
2023/08/24 08:35:39;;;;;;;1.90;0.20;;;;;;;34.16;50.82;99786.21;109921;1277;99918;-57
2023/08/24 08:38:08;;;;;;;2.30;0.40;;;;;;;34.77;50.71;99785.05;109972;1277;22764;-61
2023/08/24 08:40:37;;;;;;;1.10;0.30;;;;;;;36.14;50.71;99789.20;109881;1270;99445;-61
2023/08/24 08:43:06;;;;;;;1.30;0.30;;;;;;;38.26;50.34;99791.52;109898;1276;23287;-61
2023/08/24 08:45:35;;;;;;;5.40;0.40;;;;;;;39.30;48.15;99792.76;109997;1278;22981;-60
2023/08/24 08:48:05;;;;;;;1.70;0.60;;;;;;;40.58;46.89;99791.48;109858;1277;99560;-61
2023/08/24 08:50:35;;;;;;;1.20;0.20;;;;;;;41.46;44.24;99790.69;109996;1277;22177;-61
2023/08/24 08:53:04;;;;;;;1.10;0.40;;;;;;;42.05;42.27;99793.63;109913;1277;99480;-61
2023/08/24 08:55:32;;;;;;;1.10;0.40;;;;;;;42.09;40.51;99794.02;110022;1277;22247;-58
2023/08/24 08:58:03;;;;;;;0.80;0.50;;;;;;;42.41;40.13;99790.11;109926;1277;99613;-58
2023/08/24 09:00:32;;;;;;;2.70;0.40;;;;;;;42.25;38.12;99786.16;109989;1279;22292;-58
2023/08/24 09:03:04;;;;;;;0.80;0.40;;;;;;;40.34;36.38;99780.50;109948;1279;22190;-58
2023/08/24 09:05:32;;;;;;;2.90;0.50;;;;;;;37.86;35.52;99773.88;109939;1276;99508;-58
2023/08/24 09:08:05;;;;;;;1.40;0.20;;;;;;;36.21;35.54;99778.16;110017;1277;22193;-58
2023/08/24 09:10:34;;;;;;;2.60;0.20;;;;;;;35.29;35.15;99777.11;109824;1276;99957;-58
2023/08/24 09:13:03;;;;;;;2.00;0.70;;;;;;;34.31;35.05;99776.69;109943;1277;22165;-61
2023/08/24 09:15:36;;;;;;;2.80;0.50;;;;;;;33.56;35.21;99772.61;109973;1275;22326;-60
2023/08/24 09:18:05;;;;;;;0.60;0.30;;;;;;;35.07;35.51;99769.66;109922;1276;99290;-61
2023/08/24 09:20:45;;;;;;;1.60;0.50;;;;;;;35.07;34.65;99767.37;109980;1276;22274;-61
2023/08/24 09:23:21;;;;;;;3.70;0.50;;;;;;;34.73;35.03;99766.48;109728;1277;99984;-59
2023/08/24 09:25:50;;;;;;;2.60;0.30;;;;;;;35.89;34.40;99770.10;109847;1283;22292;-62
2023/08/24 09:28:25;;;;;;;2.10;0.50;;;;;;;34.66;33.76;99761.52;109767;1277;100381;-60
2023/08/24 09:31:24;;;;;;;1.10;0.40;;;;;;;33.49;33.79;99763.88;109899;1276;22159;-60
2023/08/24 09:34:00;;;;;;;1.20;0.40;;;;;;;32.22;33.95;99763.09;109857;1277;99551;-60
2023/08/24 09:36:35;;;;;;;2.50;0.50;;;;;;;31.54;34.31;99763.05;109894;1277;22862;-59
2023/08/24 09:39:04;;;;;;;1.70;0.50;;;;;;;31.12;34.21;99759.89;110012;1276;21999;-61
2023/08/24 09:41:41;;;;;;;11.60;1.30;;;;;;;30.55;34.26;99758.83;109830;1276;99477;-60
2023/08/24 09:44:12;;;;;;;;;;;;;;;31.23;35.74;99757.50;109953;1276;23156;-59
2023/08/24 09:46:43;;;;;;;3.60;0.90;;;;;;;34.24;35.08;99753.90;109882;1276;85927;-60
2023/08/24 09:49:12;;;;;;;12.10;1.60;;;;;;;34.04;34.42;99753.21;109960;1283;22505;-62
2023/08/24 09:51:44;;;;;;;11.40;1.60;;;;;;;32.92;34.53;99753.91;109979;1276;22835;-60
2023/08/24 09:54:19;;;;;;;1.60;0.50;;;;;;;31.81;34.55;99752.27;109913;1266;99640;-60
2023/08/24 09:56:52;;;;;;;14.50;3.80;;;;;;;31.01;34.87;99753.27;109822;1276;22346;-58
2023/08/24 09:59:35;;;;;;;10.40;1.70;;;;;;;30.65;35.15;99752.66;109891;1280;99685;-59
2023/08/24 10:02:15;;;;;;;3.80;0.70;;;;;;;30.37;35.38;99745.58;109902;1280;22127;-58
2023/08/24 10:04:44;;;;;;;2.80;0.40;;;;;;;30.21;35.56;99743.88;109866;1279;101217;-58
2023/08/24 10:07:20;;;;;;;3.10;0.60;;;;;;;30.70;35.75;99738.49;109836;1277;22336;-59
2023/08/24 10:10:03;;;;;;;3.40;0.50;;;;;;;32.05;36.29;99733.02;109886;1272;99647;-60
2023/08/24 10:12:38;;;;;;;1.30;0.30;;;;;;;33.93;36.37;99735.48;109946;1277;22111;-59
2023/08/24 10:15:10;;;;;;;0.40;0.30;;;;;;;37.60;36.61;99730.71;109971;1279;22310;-61
2023/08/24 10:17:39;;;;;;;0.50;0.20;;;;;;;40.57;35.65;99727.65;109903;1277;99472;-59
2023/08/24 10:20:10;;;;;;;8.80;1.80;;;;;;;42.65;34.93;99718.05;109988;1276;22152;-60
2023/08/24 10:22:41;;;;;;;0.80;0.50;;;;;;;44.44;33.35;99720.55;109901;1277;99758;-59
2023/08/24 10:25:10;;;;;;;0.80;0.20;;;;;;;45.15;33.04;99718.95;109942;1278;22245;-60
2023/08/24 10:27:43;;;;;;;0.40;0.20;;;;;;;45.28;31.61;99713.91;109975;1277;22346;-60
2023/08/24 10:30:21;;;;;;;0.80;0.30;;;;;;;44.63;30.46;99713.86;109905;1276;99274;-60
2023/08/24 10:32:53;;;;;;;0.60;0.40;;;;;;;43.09;29.82;99705.36;109998;1276;22316;-59
2023/08/24 10:35:24;;;;;;;1.90;0.60;;;;;;;42.45;29.37;99706.34;109864;1279;98909;-59
2023/08/24 10:37:53;;;;;;;3.00;0.60;;;;;;;41.01;28.80;99703.82;110005;1276;22333;-61
2023/08/24 10:40:33;;;;;;;2.30;0.80;;;;;;;39.48;28.48;99707.60;109892;1277;100073;-60
2023/08/24 10:43:05;;;;;;;1.00;0.30;;;;;;;37.85;28.05;99706.55;109876;1276;22664;-59
2023/08/24 10:46:00;;;;;;;1.60;0.50;;;;;;;36.26;28.05;99710.93;109956;1277;22213;-59
2023/08/24 10:48:49;;;;;;;;;;;;;;;35.16;28.61;99707.44;109927;1276;25479;-58
2023/08/24 10:51:21;;;;;;;2.20;0.70;;;;;;;34.64;28.63;99710.77;109898;1276;22296;-59
2023/08/24 10:53:54;;;;;;;3.70;0.70;;;;;;;33.71;28.71;99715.97;109831;1279;99520;-57
2023/08/24 10:56:40;;;;;;;19.80;1.60;;;;;;;32.59;28.87;99714.38;109937;1276;22347;-59
2023/08/24 10:59:16;;;;;;;1.70;0.30;;;;;;;31.84;29.32;99713.20;109901;1276;99638;-61
2023/08/24 11:01:55;;;;;;;5.40;1.10;;;;;;;32.19;30.20;99709.89;109924;1278;22155;-62
2023/08/24 11:04:25;;;;;;;24.60;3.30;;;;;;;35.88;30.61;99701.16;109905;1263;99720;-58
2023/08/24 11:06:56;;;;;;;5.00;1.00;;;;;;;39.29;30.24;99694.98;109990;1276;23333;-58
2023/08/24 11:09:27;;;;;;;0.80;0.50;;;;;;;41.80;29.70;99695.41;109994;1266;22137;-59
2023/08/24 11:12:05;;;;;;;2.60;0.60;;;;;;;42.28;28.84;99694.95;109853;1277;99491;-58
2023/08/24 11:14:54;;;;;;;4.40;0.70;;;;;;;40.19;27.80;99695.91;109962;1276;22200;-58
2023/08/24 11:17:23;;;;;;;3.40;0.60;;;;;;;37.59;27.40;99694.66;109931;1276;99935;-57
2023/08/24 11:19:54;;;;;;;3.70;0.70;;;;;;;35.97;27.73;99691.38;109922;1276;22296;-60
2023/08/24 11:22:25;;;;;;;4.10;0.90;;;;;;;34.92;27.86;99689.88;109859;1276;99714;-60
2023/08/24 11:24:54;;;;;;;3.60;0.80;;;;;;;34.09;28.13;99688.15;110008;1276;22776;-59
2023/08/24 11:27:23;;;;;;;1.00;0.50;;;;;;;33.56;28.38;99683.17;109981;1276;23136;-59
2023/08/24 11:30:00;;;;;;;1.60;0.40;;;;;;;33.09;28.51;99687.13;109943;1276;100225;-59
2023/08/24 11:32:29;;;;;;;1.30;0.50;;;;;;;32.57;28.96;99686.70;109985;1267;22432;-59
2023/08/24 11:34:58;;;;;;;1.90;0.60;;;;;;;32.34;29.30;99683.42;109868;1276;99620;-59
2023/08/24 11:37:26;;;;;;;5.90;2.10;;;;;;;33.27;29.91;99683.64;109959;1276;23079;-59
2023/08/24 11:39:55;;;;;;;15.80;3.30;;;;;;;35.88;30.24;99678.11;109928;1276;99629;-60
2023/08/24 11:42:24;;;;;;;15.10;3.20;;;;;;;38.39;30.17;99676.40;109926;1277;22358;-59
2023/08/24 11:44:53;;;;;;;4.00;0.90;;;;;;;40.27;29.67;99678.54;109981;1277;22980;-59